METAR & TAF

RJTF 210600Z VRB01KT 9999 FEW030 12/M05 Q1013
RJTF 210500Z VRB02KT 9999 FEW030 12/M04 Q1014
RJTF 210400Z 06003KT 350V170 9999 FEW030 SCT/// 12/M04 Q1013
RJTF 210300Z 02004KT 340V080 9999 FEW030 SCT/// 11/M04 Q1015
RJTF 210200Z 02005KT 350V080 9999 FEW030 SCT060 09/M02 Q1016
No TAF found for RJTF